Shanghai, Shanghai

4:34 PM CST on March 02, 2015 (GMT +0800)
eric | Change Station
CLOSE
Current Station
Personal Weather Station
Location: 上海, 上海市
Elevation: 23 ft
Nearby Weather Stations

Elev 23 ft 31.32 °N, 121.47 °E | Updated 5 seconds ago

Clear
Clear
51.3 °F
Feels Like 51.3 °F
N
2.7
Wind Variable Wind from ENE
Gusts 4.9 mph

Today
High -- | Low -- °F
--% Chance of Precip.
Yesterday
High -- | Low -- °F
Precip. -- in
6:20 AM 5:52 PM
Waxing Gibbous, 90% visible
Pressure 29.98 in
Visibility 3.7 miles
Clouds
Dew Point 35 °F
Humidity 53%
Rainfall 0.00 in
Snow Depth Not available.
UV 0.0 out of 12
Pollen Not available.
Air Quality Not available.
Flu Activity Not available.
METAR ZSSS 020800Z 15006MPS 6000 NSC 11/02 Q1015 NOSIG

More Conditions Fewer Conditions

Pressure 29.98 in
Visibility 3.7 miles
Clouds
Dew Point 35 °F
Humidity 53%
Rainfall 0.00 in
Snow Depth Not available.
UV 0.0 out of 12
Pollen Not available.
Air Quality Not available.
Flu Activity Not available.
METAR ZSSS 020800Z 15006MPS 6000 NSC 11/02 Q1015 NOSIG

More Conditions Fewer Conditions

10-Day Weather Forecast

Almanac

Astronomy

Mar. 02, 2015 Rise Set
Actual Time
Civil Twilight
Nautical Twilight
Astronomical Twilight
Moon
Length of Visible Light
Length of Day
Tomorrow will be .
, % of the Moon is Illuminated

Today's Extremes

Country Highs Country Lows

Community

WunderPhotos

Upload Photos

1,801,751 photos uploaded!

WunderBlogs® & News

Nearby

Air Quality

  Air Quality AQ Index Pollutant
Not available.

Snow Depth

Station Depth Elevation

Earthquake Activity

City Distance Mag. Time & Date
Minimum magnitude displayed is 2.5.

Coastal Water Temperatures

Place Temperature

Nearby Weather Stations